Time;durP1;ratioP1;P1;durP2;ratioP2;P2;SDS_P1;SDS_P2;PMS_P1;PMS_P2;Temp;Humidity;BMP_temperature;BMP_pressure;BME280_temperature;BME280_humidity;BME280_pressure;Samples;Min_cycle;Max_cycle;Signal;HPM_P1;HPM_P2
2024/02/21 01:38:50;;;;;;;2.15;1.35;;;;;;;8.56;65.32;99439.09;4852781;29;20058;-96
2024/02/21 01:41:28;;;;;;;2.63;1.25;;;;;;;8.70;64.22;99431.06;4851125;29;20080;-96
2024/02/21 01:44:08;;;;;;;1.50;0.88;;;;;;;8.95;63.83;99455.56;4855188;29;20046;-96
2024/02/21 01:49:56;;;;;;;3.20;1.27;;;;;;;8.88;62.44;99414.09;4791611;29;20023;-95
2024/02/21 01:52:49;;;;;;;2.20;1.20;;;;;;;9.19;62.49;99464.16;4781574;30;20066;-96
2024/02/21 01:55:37;;;;;;;1.77;1.10;;;;;;;9.27;62.39;99490.66;4785751;29;20073;-95
2024/02/21 02:02:25;;;;;;;1.55;0.80;;;;;;;9.22;63.58;99491.56;4776667;30;20055;-96
2024/02/21 02:06:09;;;;;;;2.33;1.33;;;;;;;9.08;64.02;99496.13;4745433;30;20052;-96
2024/02/21 02:16:42;;;;;;;2.67;1.23;;;;;;;7.60;70.01;99409.69;5038214;23;20062;-96
2024/02/21 02:19:38;;;;;;;2.67;1.75;;;;;;;7.58;70.35;99415.88;4866204;29;20447;-96
2024/02/21 02:22:55;;;;;;;4.60;1.88;;;;;;;7.46;71.70;99406.25;4870660;29;20109;-96
2024/02/21 02:25:26;;;;;;;3.00;1.25;;;;;;;7.98;69.09;99456.28;4871461;29;20140;-96
2024/02/21 02:27:53;;;;;;;3.63;1.10;;;;;;;8.08;67.15;99411.19;4873700;29;20049;-95
2024/02/21 02:30:19;;;;;;;3.70;1.55;;;;;;;8.56;66.84;99480.66;4868249;29;20158;-96
2024/02/21 02:32:52;;;;;;;2.03;1.15;;;;;;;8.63;66.50;99472.66;4867322;29;20054;-95
2024/02/21 02:36:39;;;;;;;2.28;1.17;;;;;;;8.45;68.83;99479.84;4880923;29;20054;-96
2024/02/21 02:39:05;;;;;;;5.20;2.03;;;;;;;7.90;68.39;99410.41;4856224;29;20041;-96
2024/02/21 02:46:14;;;;;;;2.40;1.25;;;;;;;8.12;69.62;99482.66;4782231;30;20510;-96
2024/02/21 02:49:15;;;;;;;2.45;1.20;;;;;;;8.00;70.79;99483.63;4780148;30;20046;-96
2024/02/21 02:52:21;;;;;;;;;;;;;;;;;;;;;
2024/02/21 02:55:22;;;;;;;1.95;0.88;;;;;;;7.73;72.97;99478.47;4797135;29;20047;-96
2024/02/21 03:13:50;;;;;;;;;;;;;;;;;;;;;
2024/02/21 03:53:21;;;;;;;2.75;1.58;;;;;;;6.88;76.28;99422.28;1863065;23;21613;31
2024/02/21 03:55:47;;;;;;;3.22;1.35;;;;;;;7.64;73.89;99494.38;4855620;29;20113;-93
2024/02/21 03:58:16;;;;;;;2.25;1.20;;;;;;;7.64;72.26;99452.03;4856306;29;20045;-95
2024/02/21 04:01:06;;;;;;;2.55;1.42;;;;;;;7.97;72.06;99493.34;4856692;29;20060;-96
2024/02/21 04:04:09;;;;;;;2.30;1.25;;;;;;;7.87;71.25;99463.41;4869648;29;20076;-96
2024/02/21 04:07:15;;;;;;;3.97;1.42;;;;;;;7.94;71.03;99491.59;4858903;29;20087;-96
2024/02/21 04:13:43;;;;;;;3.17;1.33;;;;;;;7.80;70.41;99437.81;4834388;29;20057;-96
2024/02/21 04:16:30;;;;;;;3.08;1.38;;;;;;;8.06;71.44;99471.22;4850831;29;20080;-96
2024/02/21 04:19:30;;;;;;;3.50;1.50;;;;;;;7.29;72.54;99395.72;4838726;29;20512;-96
2024/02/21 04:37:00;;;;;;;2.30;1.08;;;;;;;6.79;76.05;99392.31;4779757;30;20043;-96
2024/02/21 04:39:29;;;;;;;2.70;1.27;;;;;;;6.87;76.71;99394.06;4786937;29;20051;-95
2024/02/21 04:42:25;;;;;;;1.92;1.10;;;;;;;7.10;75.26;99405.47;4796691;29;20097;-96
2024/02/21 04:44:58;;;;;;;1.80;0.88;;;;;;;7.66;74.32;99476.72;4757969;30;20063;-96
2024/02/21 04:47:28;;;;;;;2.05;1.10;;;;;;;7.80;72.78;99485.47;4758810;30;20079;-96
2024/02/21 05:05:16;;;;;;;2.05;1.08;;;;;;;7.68;73.58;99497.00;5233468;23;20045;-96
2024/02/21 05:29:56;;;;;;;5.30;2.30;;;;;;;7.37;72.35;99428.31;5142103;23;20058;-96
2024/02/21 05:32:22;;;;;;;5.43;2.55;;;;;;;7.48;74.35;99507.66;5583693;23;20039;-94
2024/02/21 05:34:50;;;;;;;6.78;3.38;;;;;;;6.97;75.10;99461.91;5735708;23;21119;-96
2024/02/21 06:16:18;;;;;;;5.53;2.55;;;;;;;5.01;100.00;99531.69;3648425;23;20220;-95
2024/02/21 06:19:10;;;;;;;6.55;2.60;;;;;;;4.37;100.00;99455.63;4866495;29;20053;-96
2024/02/21 06:21:36;;;;;;;3.90;2.38;;;;;;;4.90;100.00;99541.25;4865604;29;20046;-94
2024/02/21 06:24:03;;;;;;;5.97;2.33;;;;;;;4.91;100.00;99466.59;4871268;29;20525;-96
2024/02/21 06:26:52;;;;;;;6.47;2.22;;;;;;;5.46;100.00;99539.88;4879524;29;20065;-95
2024/02/21 06:32:00;;;;;;;4.65;2.40;;;;;;;5.56;100.00;99554.91;5115329;23;20120;-94
2024/02/21 06:39:07;;;;;;;5.43;2.50;;;;;;;5.82;100.00;99552.41;4870979;29;20059;-96
2024/02/21 06:41:42;;;;;;;5.82;2.38;;;;;;;5.75;100.00;99533.00;4872362;29;20053;-96
2024/02/21 06:44:08;;;;;;;6.20;3.03;;;;;;;5.85;100.00;99577.91;4865312;29;20049;-95
2024/02/21 06:46:37;;;;;;;6.55;3.53;;;;;;;5.93;100.00;99578.84;4864924;29;20060;-95
2024/02/21 06:49:04;;;;;;;5.88;2.90;;;;;;;5.98;100.00;99579.78;4865836;29;20105;-96
2024/02/21 06:51:37;;;;;;;6.78;3.28;;;;;;;5.97;97.83;99588.59;4869247;29;20041;-96
2024/02/21 06:54:11;;;;;;;6.50;2.90;;;;;;;6.02;95.32;99567.47;4866205;29;20041;-96
2024/02/21 06:56:46;;;;;;;8.10;3.25;;;;;;;5.61;94.38;99499.53;4865761;29;20055;-96
2024/02/21 06:59:15;;;;;;;8.50;3.03;;;;;;;5.90;93.15;99537.47;4867143;29;20077;-95
2024/02/21 07:01:56;;;;;;;7.15;3.42;;;;;;;5.72;92.47;99503.97;4864291;29;20391;-95
2024/02/21 07:04:48;;;;;;;;;;;;;;;;;;;;;
2024/02/21 07:07:35;;;;;;;6.28;2.97;;;;;;;5.82;93.23;99527.78;4866742;29;20117;-96
2024/02/21 07:10:12;;;;;;;5.72;3.30;;;;;;;5.81;93.67;99524.22;4866857;29;20493;-96
2024/02/21 07:12:43;;;;;;;8.20;3.60;;;;;;;6.00;94.45;99551.63;4865893;29;20052;-96
2024/02/21 07:15:09;;;;;;;8.35;3.40;;;;;;;6.34;94.79;99592.25;4866388;29;20049;-96
2024/02/21 07:17:38;;;;;;;5.40;3.33;;;;;;;6.42;93.97;99591.38;4866788;29;20045;-96
2024/02/21 07:20:13;;;;;;;5.13;3.05;;;;;;;6.36;92.58;99561.44;4865783;29;20060;-96
2024/02/21 07:22:39;;;;;;;7.72;3.53;;;;;;;6.72;90.72;99596.75;4865382;29;20532;-95
2024/02/21 07:25:08;;;;;;;8.10;3.17;;;;;;;6.58;90.13;99549.13;4864587;29;20476;-95
2024/02/21 07:27:34;;;;;;;7.43;3.70;;;;;;;6.91;89.80;99600.28;4867646;29;20061;-94
2024/02/21 07:30:00;;;;;;;8.50;3.47;;;;;;;6.91;88.04;99581.78;4864169;29;20060;-95
2024/02/21 07:32:26;;;;;;;8.43;3.47;;;;;;;7.15;86.16;99601.19;4878634;29;20523;-95
2024/02/21 07:34:52;;;;;;;7.63;2.95;;;;;;;6.96;85.23;99545.66;4879810;29;20053;-95
2024/02/21 07:37:18;;;;;;;6.32;3.00;;;;;;;7.36;84.87;99598.53;4881256;29;20051;-95
2024/02/21 07:39:44;;;;;;;12.35;3.38;;;;;;;7.20;83.74;99552.69;4883324;29;20378;-95
2024/02/21 07:42:11;;;;;;;6.22;3.40;;;;;;;7.56;84.97;99594.97;4881215;29;20096;-93
2024/02/21 07:44:37;;;;;;;8.93;3.38;;;;;;;7.69;83.74;99594.06;4882680;29;20079;-95
2024/02/21 07:47:03;;;;;;;7.15;4.28;;;;;;;7.73;82.86;99561.41;4879336;29;20485;-94
2024/02/21 07:49:29;;;;;;;8.50;4.13;;;;;;;7.60;82.17;99512.91;4879314;29;20489;-94
2024/02/21 07:51:55;;;;;;;5.82;3.45;;;;;;;8.22;81.36;99584.19;4879251;29;20090;-94
2024/02/21 07:54:44;;;;;;;9.43;4.65;;;;;;;8.33;78.45;99590.31;4879992;29;20045;-96
2024/02/21 07:57:12;;;;;;;11.23;4.38;;;;;;;8.10;77.06;99513.59;4882266;29;20140;-95
2024/02/21 07:59:38;;;;;;;11.02;4.35;;;;;;;8.74;76.71;99586.59;4880667;29;20045;-96
2024/02/21 08:02:06;;;;;;;8.55;4.10;;;;;;;8.50;77.12;99515.16;4881455;29;20095;-96
2024/02/21 08:04:33;;;;;;;8.75;4.50;;;;;;;9.05;75.95;99578.41;4880913;29;20429;-96
2024/02/21 08:07:01;;;;;;;8.55;4.18;;;;;;;9.21;75.86;99574.72;4879420;29;20067;-96
2024/02/21 08:09:27;;;;;;;10.35;3.97;;;;;;;9.02;75.39;99506.78;4880357;29;20057;-96
2024/02/21 08:11:54;;;;;;;7.13;3.72;;;;;;;9.37;74.65;99534.78;4880629;29;20140;-94
2024/02/21 08:14:22;;;;;;;5.93;4.03;;;;;;;9.81;72.88;99576.78;4883113;29;20497;-96
2024/02/21 08:16:48;;;;;;;12.00;3.83;;;;;;;9.97;72.65;99577.50;4883243;29;20045;-96
2024/02/21 08:19:14;;;;;;;5.68;3.40;;;;;;;9.72;71.56;99510.50;4886164;29;20053;-96
2024/02/21 08:21:40;;;;;;;8.05;3.85;;;;;;;10.30;70.72;99590.41;4886992;29;20139;-96
2024/02/21 08:24:06;;;;;;;7.90;4.18;;;;;;;10.28;70.26;99556.75;4883650;29;20076;-96
2024/02/21 08:26:35;;;;;;;8.75;4.50;;;;;;;10.56;69.31;99590.06;4892765;29;20076;-96
2024/02/21 08:29:01;;;;;;;11.35;5.38;;;;;;;10.71;68.99;99591.63;4883060;29;20057;-92
2024/02/21 08:31:32;;;;;;;8.70;4.35;;;;;;;10.82;68.39;99579.97;4900640;29;20057;-95
2024/02/21 08:34:05;;;;;;;10.23;4.38;;;;;;;10.92;67.82;99587.78;4939186;23;20057;-96
2024/02/21 08:36:32;;;;;;;11.88;5.03;;;;;;;11.03;67.29;99583.16;4924122;29;20083;-95
2024/02/21 08:39:03;;;;;;;12.73;4.13;;;;;;;11.10;67.16;99585.72;4923872;29;20031;-96
2024/02/21 08:41:31;;;;;;;9.35;3.97;;;;;;;11.10;67.46;99590.16;4922136;29;20051;-96
2024/02/21 08:43:59;;;;;;;7.03;4.28;;;;;;;10.81;66.86;99524.09;4917636;29;20048;-96
2024/02/21 08:47:03;;;;;;;7.80;4.00;;;;;;;10.86;65.04;99501.84;4915744;29;20049;-96
2024/02/21 08:50:10;;;;;;;8.82;4.85;;;;;;;10.98;64.98;99497.22;4911548;29;20111;-96
2024/02/21 08:53:03;;;;;;;14.13;5.82;;;;;;;11.60;66.09;99580.44;4981597;23;20498;-96
2024/02/21 08:58:20;;;;;;;15.52;6.97;;;;;;;11.25;66.11;99502.03;5018980;23;20065;-96
2024/02/21 09:00:56;;;;;;;18.85;6.82;;;;;;;11.55;66.09;99529.00;4897835;29;20049;-96
2024/02/21 09:03:23;;;;;;;13.68;6.25;;;;;;;12.03;65.62;99568.09;4884682;29;20041;-96
2024/02/21 09:05:49;;;;;;;10.35;6.00;;;;;;;12.03;63.56;99576.97;4881555;29;20052;-93
2024/02/21 09:08:16;;;;;;;13.20;6.47;;;;;;;12.16;64.08;99585.59;4882050;29;20049;-96
2024/02/21 09:10:42;;;;;;;10.77;5.47;;;;;;;11.91;64.08;99532.78;4868376;29;20044;-96
2024/02/21 09:13:08;;;;;;;10.90;5.82;;;;;;;12.10;63.30;99578.63;4869500;29;20097;-95
2024/02/21 09:15:34;;;;;;;15.68;5.93;;;;;;;11.67;64.86;99506.59;4884670;29;20045;-96
2024/02/21 09:18:00;;;;;;;21.40;6.70;;;;;;;12.04;65.09;99530.75;4868169;29;20076;-94
2024/02/21 09:20:29;;;;;;;18.30;7.28;;;;;;;12.43;63.89;99581.47;4870499;29;20080;-96
2024/02/21 09:22:58;;;;;;;18.50;8.65;;;;;;;12.06;63.82;99509.41;4870283;29;20049;-96
2024/02/21 09:25:26;;;;;;;14.60;7.75;;;;;;;12.56;64.11;99579.41;4871301;29;20059;-94
2024/02/21 09:27:54;;;;;;;18.83;8.07;;;;;;;12.52;64.23;99551.94;4887373;29;20060;-96
2024/02/21 09:30:20;;;;;;;24.77;8.80;;;;;;;12.41;63.52;99505.06;4879900;29;20048;-96
2024/02/21 09:32:46;;;;;;;20.88;9.15;;;;;;;12.70;63.21;99525.72;4880448;29;20053;-95
2024/02/21 09:35:13;;;;;;;22.63;7.57;;;;;;;13.15;61.91;99558.44;4879863;29;20053;-96
2024/02/21 09:37:39;;;;;;;15.77;7.22;;;;;;;13.01;61.25;99533.00;4879071;29;20063;-96
2024/02/21 09:40:06;;;;;;;14.73;7.43;;;;;;;13.04;61.72;99575.66;4874850;29;20056;-93
2024/02/21 09:42:38;;;;;;;16.45;7.22;;;;;;;13.16;61.09;99556.63;4882844;29;20058;-96
2024/02/21 09:45:08;;;;;;;16.15;6.25;;;;;;;13.40;60.02;99573.00;4866402;29;20053;-94
2024/02/21 09:47:59;;;;;;;14.48;6.10;;;;;;;13.25;60.06;99515.47;4866636;29;20064;-95
2024/02/21 09:50:27;;;;;;;13.70;6.28;;;;;;;13.71;59.18;99573.09;4871046;29;20493;-96
2024/02/21 09:52:54;;;;;;;14.63;6.47;;;;;;;13.70;59.07;99566.84;4867119;29;20041;-95
2024/02/21 09:55:23;;;;;;;14.40;6.28;;;;;;;13.91;58.66;99575.22;4870320;29;20037;-96
2024/02/21 09:57:54;;;;;;;10.00;4.88;;;;;;;13.80;57.57;99564.81;4872873;29;20064;-96
2024/02/21 10:00:21;;;;;;;12.93;5.55;;;;;;;13.51;58.06;99501.44;4883741;29;20057;-96
2024/02/21 10:02:54;;;;;;;10.38;5.05;;;;;;;13.92;58.47;99545.75;4877667;29;20048;-96
2024/02/21 10:05:20;;;;;;;12.35;5.88;;;;;;;14.22;57.94;99566.31;4867413;29;20104;-94
2024/02/21 10:07:48;;;;;;;10.43;4.95;;;;;;;14.10;58.27;99522.94;4882390;29;20045;-94
2024/02/21 10:10:16;;;;;;;12.73;5.75;;;;;;;14.03;57.27;99483.03;4880645;29;20045;-96
2024/02/21 10:12:54;;;;;;;11.65;4.90;;;;;;;14.63;55.84;99565.09;4865487;29;20056;-94
2024/02/21 10:15:23;;;;;;;11.25;4.78;;;;;;;14.81;55.35;99565.44;4865555;29;20049;-95
2024/02/21 10:17:50;;;;;;;6.57;2.95;;;;;;;14.53;50.00;99491.31;4876770;29;20116;-96
2024/02/21 10:20:16;;;;;;;2.35;1.20;;;;;;;14.51;43.63;99582.38;4888183;29;20044;-96
2024/02/21 10:22:44;;;;;;;3.17;1.25;;;;;;;14.84;44.20;99576.06;4884855;29;20053;-96
2024/02/21 10:25:11;;;;;;;2.13;0.90;;;;;;;14.87;42.47;99566.13;4876745;29;20400;-92
2024/02/21 10:27:37;;;;;;;2.63;0.50;;;;;;;14.76;41.29;99563.78;4886487;29;20104;-95
2024/02/21 10:30:13;;;;;;;2.03;0.65;;;;;;;14.98;40.65;99555.06;4883328;29;20052;-92
2024/02/21 10:38:11;;;;;;;1.65;0.70;;;;;;;14.72;41.22;99468.41;4932807;29;20035;-96
2024/02/21 10:40:37;;;;;;;2.13;0.60;;;;;;;15.02;41.10;99537.97;4948504;23;20540;-91
2024/02/21 10:43:09;;;;;;;3.72;0.90;;;;;;;14.66;40.19;99470.41;4970842;23;20035;-96
2024/02/21 10:46:05;;;;;;;1.33;0.60;;;;;;;15.21;40.19;99540.91;4979057;23;20075;-96
2024/02/21 10:48:44;;;;;;;1.50;0.70;;;;;;;15.17;39.11;99494.59;4888361;29;20059;-96
2024/02/21 10:51:16;;;;;;;0.77;0.50;;;;;;;15.03;40.89;99451.34;4881193;29;20049;-94
2024/02/21 10:53:54;;;;;;;1.75;0.60;;;;;;;15.59;40.42;99526.22;4915585;29;20050;-96
2024/02/21 10:56:36;;;;;;;1.27;0.50;;;;;;;15.17;39.69;99449.03;4904673;29;20071;-96
2024/02/21 10:59:32;;;;;;;0.95;0.60;;;;;;;15.39;42.24;99509.94;5013112;23;20048;-95
2024/02/21 11:01:59;;;;;;;1.52;0.70;;;;;;;15.53;40.97;99504.09;4886910;29;20136;-91
2024/02/21 11:04:26;;;;;;;3.88;1.08;;;;;;;15.09;39.98;99432.34;4886498;29;20072;-95
2024/02/21 11:06:52;;;;;;;1.55;0.73;;;;;;;15.26;39.86;99493.41;4890496;29;20569;-96
2024/02/21 11:09:29;;;;;;;1.40;0.63;;;;;;;15.38;39.33;99492.97;4943249;23;20065;-94
2024/02/21 11:11:58;;;;;;;1.48;0.75;;;;;;;15.45;39.62;99487.41;4884242;29;20045;-96
2024/02/21 11:14:27;;;;;;;1.60;0.60;;;;;;;15.39;40.72;99443.78;4887138;29;20052;-94
2024/02/21 11:16:53;;;;;;;3.92;0.80;;;;;;;15.01;39.24;99415.72;4886232;29;20109;-96
2024/02/21 11:19:23;;;;;;;1.00;0.65;;;;;;;15.46;37.78;99455.19;4886545;29;20217;-96
2024/02/21 11:21:55;;;;;;;1.83;0.63;;;;;;;15.37;38.42;99439.44;4888470;29;20041;-96
2024/02/21 11:24:29;;;;;;;1.05;0.60;;;;;;;15.40;38.12;99448.25;4885170;29;20077;-91
2024/02/21 11:26:55;;;;;;;1.63;0.68;;;;;;;15.31;38.06;99416.44;4917855;23;20056;-96
2024/02/21 11:29:24;;;;;;;1.27;0.70;;;;;;;15.60;38.32;99460.06;4889136;29;20052;-89
2024/02/21 11:31:54;;;;;;;2.10;0.93;;;;;;;15.40;39.06;99429.47;4888870;29;20113;-96
2024/02/21 11:42:42;;;;;;;1.15;0.77;;;;;;;15.54;37.93;99436.13;5252977;23;19924;-90
2024/02/21 11:47:47;;;;;;;1.35;0.90;;;;;;;15.61;37.01;99440.34;4837110;23;20040;-96
2024/02/21 11:50:13;;;;;;;1.20;0.70;;;;;;;15.39;37.25;99359.84;4884202;29;20054;-96
2024/02/21 11:52:39;;;;;;;1.35;0.73;;;;;;;15.85;38.38;99426.97;4960504;23;20059;-92
2024/02/21 11:55:11;;;;;;;1.45;0.70;;;;;;;15.76;37.77;99398.72;4930747;29;20412;-94
2024/02/21 12:00:20;;;;;;;1.98;0.55;;;;;;;15.58;36.54;99346.63;5286728;23;20057;-94
2024/02/21 12:02:52;;;;;;;1.33;0.45;;;;;;;15.56;36.25;99344.00;5325748;23;20114;-96
2024/02/21 12:07:58;;;;;;;1.30;0.70;;;;;;;15.48;37.80;99340.72;5386453;23;20064;-96
2024/02/21 12:10:44;;;;;;;0.85;0.65;;;;;;;15.90;37.71;99400.88;4940968;29;20079;-94
2024/02/21 12:18:22;;;;;;;1.52;1.08;;;;;;;16.02;37.26;99384.28;5138985;23;20060;-93
2024/02/21 12:20:52;;;;;;;2.90;0.70;;;;;;;15.74;36.07;99312.97;4892741;29;20056;-95
2024/02/21 12:25:47;;;;;;;0.77;0.50;;;;;;;15.94;36.29;99335.41;4931774;29;20052;-95
2024/02/21 12:28:13;;;;;;;1.10;0.50;;;;;;;16.07;36.85;99360.84;4911643;29;20040;-96
2024/02/21 12:30:40;;;;;;;1.23;0.57;;;;;;;15.77;35.34;99326.25;4915959;29;20068;-96
2024/02/21 12:33:14;;;;;;;1.23;0.43;;;;;;;15.67;36.07;99278.38;4924699;29;20056;-95
2024/02/21 12:35:55;;;;;;;1.55;0.63;;;;;;;16.18;36.00;99350.56;4903391;29;20044;-95
2024/02/21 12:38:27;;;;;;;2.58;0.63;;;;;;;15.92;36.17;99265.78;4920900;29;20040;-95
2024/02/21 12:41:17;;;;;;;0.77;0.40;;;;;;;16.36;33.27;99338.19;4972291;23;20076;-96
2024/02/21 12:43:43;;;;;;;1.27;0.63;;;;;;;16.50;33.71;99342.97;4892194;29;20053;-96
2024/02/21 12:46:09;;;;;;;0.88;0.50;;;;;;;16.32;33.83;99322.28;4883429;29;20095;-92
2024/02/21 12:48:35;;;;;;;2.08;0.70;;;;;;;16.15;33.56;99305.03;4889849;29;20053;-96
2024/02/21 12:51:05;;;;;;;0.80;0.47;;;;;;;15.93;34.44;99269.31;4891743;29;20068;-96
2024/02/21 12:53:35;;;;;;;1.25;0.50;;;;;;;15.89;34.44;99260.50;4892751;29;20138;-96
2024/02/21 13:04:35;;;;;;;0.98;0.50;;;;;;;16.51;33.14;99320.56;4855716;29;20046;-94
2024/02/21 13:07:14;;;;;;;3.33;0.60;;;;;;;16.45;33.60;99310.06;4845896;29;20051;-96
2024/02/21 13:09:41;;;;;;;1.30;0.60;;;;;;;16.16;33.34;99244.22;4845441;29;20050;-96
2024/02/21 13:12:08;;;;;;;2.53;1.00;;;;;;;16.63;33.01;99311.09;4862913;29;20049;-96
2024/02/21 13:14:35;;;;;;;0.70;0.50;;;;;;;16.58;33.46;99305.06;4865845;29;20053;-95
2024/02/21 13:17:01;;;;;;;1.75;0.60;;;;;;;16.08;33.17;99228.44;4862047;29;20113;-96
2024/02/21 13:19:27;;;;;;;1.30;0.70;;;;;;;16.52;32.64;99295.44;4851097;29;20098;-96
2024/02/21 13:21:56;;;;;;;2.65;0.47;;;;;;;16.54;33.24;99285.50;4854620;29;20072;-96
2024/02/21 13:24:27;;;;;;;;;;;;;;;16.53;33.12;99286.47;4842442;29;20069;-96
2024/02/21 13:26:52;;;;;;;1.23;0.90;;;;;;;16.36;34.06;99275.56;4847841;29;20384;-95
2024/02/21 13:29:20;;;;;;;1.38;0.63;;;;;;;16.42;33.96;99276.19;4858456;29;20042;-89
2024/02/21 13:31:52;;;;;;;2.15;0.60;;;;;;;16.51;32.80;99253.44;4842471;29;20046;-96
2024/02/21 13:34:18;;;;;;;2.35;0.50;;;;;;;16.71;31.64;99291.97;4843470;29;20504;-95
2024/02/21 13:36:45;;;;;;;1.80;0.82;;;;;;;16.63;32.19;99268.13;4848960;29;20041;-94
2024/02/21 13:39:15;;;;;;;2.22;0.47;;;;;;;16.35;32.06;99214.75;4859867;29;20038;-94
2024/02/21 13:41:43;;;;;;;1.67;1.00;;;;;;;16.59;32.67;99255.78;4858773;29;20061;-94
2024/02/21 13:44:09;;;;;;;0.70;0.40;;;;;;;16.68;31.96;99278.69;4865949;29;20050;-95
2024/02/21 13:46:35;;;;;;;0.70;0.40;;;;;;;16.29;33.28;99215.06;4844951;29;20050;-96
2024/02/21 13:49:06;;;;;;;1.75;0.80;;;;;;;16.60;33.75;99269.13;4911068;23;20113;-93
2024/02/21 13:51:34;;;;;;;0.60;0.40;;;;;;;16.53;30.92;99235.44;4844948;29;20045;-95
2024/02/21 13:54:00;;;;;;;1.17;0.60;;;;;;;16.40;31.83;99271.81;4848424;29;20562;-93
2024/02/21 13:56:26;;;;;;;2.88;0.57;;;;;;;16.43;30.81;99261.81;4847322;29;20041;-95
2024/02/21 13:58:58;;;;;;;0.90;0.47;;;;;;;15.71;31.78;99181.69;4868892;29;20105;-95
2024/02/21 14:01:24;;;;;;;1.67;0.50;;;;;;;15.88;32.32;99249.88;4842961;29;20042;-96
2024/02/21 14:03:50;;;;;;;1.27;0.60;;;;;;;15.82;32.48;99267.06;4870197;29;20041;-96
2024/02/21 14:06:21;;;;;;;0.90;0.60;;;;;;;15.57;32.06;99197.44;4870060;29;20046;-96
2024/02/21 14:08:50;;;;;;;1.25;0.50;;;;;;;15.56;32.68;99185.84;4858138;29;20142;-96
2024/02/21 14:11:21;;;;;;;0.73;0.45;;;;;;;15.88;32.01;99204.28;4864843;29;20045;-96
2024/02/21 14:13:52;;;;;;;3.72;0.65;;;;;;;15.73;32.32;99187.00;4874200;29;20072;-96
2024/02/21 14:16:25;;;;;;;1.75;0.80;;;;;;;16.24;31.82;99252.81;4871581;29;20071;-96
2024/02/21 14:18:51;;;;;;;1.23;0.50;;;;;;;16.25;31.75;99248.34;5057713;23;20335;-96
2024/02/21 14:21:18;;;;;;;0.80;0.40;;;;;;;15.73;31.46;99179.84;4857151;29;20049;-96
2024/02/21 14:23:56;;;;;;;1.65;0.80;;;;;;;16.12;31.46;99243.47;5024974;23;20034;31
2024/02/21 14:26:24;;;;;;;1.73;0.70;;;;;;;15.86;32.06;99179.31;5244878;23;20155;-96
2024/02/21 14:28:51;;;;;;;1.05;0.52;;;;;;;16.22;33.18;99199.22;4905089;29;20059;-96
2024/02/21 14:31:17;;;;;;;1.50;0.50;;;;;;;16.16;32.98;99177.16;4902407;29;20048;-96
2024/02/21 14:33:46;;;;;;;1.05;0.60;;;;;;;16.57;32.94;99239.75;4898568;29;20059;-96
2024/02/21 14:36:11;;;;;;;1.42;0.68;;;;;;;16.13;34.07;99163.84;4907637;29;20032;-96
2024/02/21 14:38:38;;;;;;;1.40;1.00;;;;;;;16.40;34.25;99210.97;4913802;29;20036;-96
2024/02/21 14:41:04;;;;;;;1.02;0.60;;;;;;;16.57;33.69;99225.47;4920166;29;20045;-94
2024/02/21 14:43:30;;;;;;;2.38;0.85;;;;;;;16.59;34.73;99223.56;4902739;29;20060;-96
2024/02/21 14:46:12;;;;;;;3.83;1.38;;;;;;;16.31;35.96;99192.59;4914360;29;20055;-96
2024/02/21 14:48:41;;;;;;;4.30;1.42;;;;;;;16.60;36.32;99239.59;4908872;29;20057;-96
2024/02/21 14:53:43;;;;;;;1.67;0.85;;;;;;;16.42;37.80;99213.59;5023318;23;20061;-95
2024/02/21 14:56:17;;;;;;;4.35;1.55;;;;;;;16.42;36.74;99229.69;4890285;29;20045;-94
2024/02/21 14:58:43;;;;;;;4.00;1.58;;;;;;;16.43;37.10;99213.50;4890784;29;20169;-96
2024/02/21 15:01:09;;;;;;;2.63;1.52;;;;;;;16.32;36.56;99220.28;4891798;29;20096;-96
2024/02/21 15:03:38;;;;;;;2.35;1.77;;;;;;;16.22;36.04;99212.63;4896472;29;20097;-96
2024/02/21 15:06:04;;;;;;;1.70;0.90;;;;;;;16.10;36.65;99182.78;4889494;29;20047;-92
2024/02/21 15:08:30;;;;;;;2.28;1.10;;;;;;;16.08;36.14;99185.50;4890830;29;20048;-95
2024/02/21 15:10:58;;;;;;;2.25;1.10;;;;;;;15.85;37.20;99148.94;4886634;29;20048;-95
2024/02/21 15:13:26;;;;;;;1.83;0.82;;;;;;;16.16;36.09;99210.22;4886059;29;20052;-96
2024/02/21 15:15:52;;;;;;;1.25;0.75;;;;;;;15.99;36.56;99169.81;4885803;29;20044;-96
2024/02/21 15:18:19;;;;;;;2.63;1.17;;;;;;;16.03;35.90;99211.69;4892378;29;20080;-93
2024/02/21 15:20:45;;;;;;;2.28;1.13;;;;;;;16.08;36.52;99217.72;4894063;29;20049;-94
2024/02/21 15:23:12;;;;;;;5.40;1.30;;;;;;;15.83;36.04;99193.75;4890615;29;20048;-96
2024/02/21 15:25:38;;;;;;;3.03;1.20;;;;;;;16.06;35.93;99216.91;4890818;29;20048;-96
2024/02/21 15:28:06;;;;;;;2.03;0.95;;;;;;;15.98;35.82;99201.16;4890349;29;20053;-93
2024/02/21 15:30:35;;;;;;;2.60;0.93;;;;;;;15.63;36.01;99132.84;4890796;29;20048;-96
2024/02/21 15:33:02;;;;;;;4.65;1.23;;;;;;;15.92;36.30;99189.81;4893174;29;20044;-95
2024/02/21 15:35:28;;;;;;;2.08;0.85;;;;;;;15.66;36.18;99134.53;4894546;29;20092;-93
2024/02/21 15:37:55;;;;;;;3.00;1.52;;;;;;;15.53;36.82;99137.75;4903127;29;20047;-94
2024/02/21 15:40:21;;;;;;;2.72;1.00;;;;;;;15.88;35.98;99207.81;4899275;29;20080;-94
2024/02/21 15:42:47;;;;;;;3.25;1.13;;;;;;;15.65;36.91;99189.09;4896557;29;20052;-96
2024/02/21 15:45:30;;;;;;;4.68;1.35;;;;;;;15.76;36.78;99208.31;4896441;29;20059;-96
2024/02/21 15:47:56;;;;;;;2.72;0.90;;;;;;;15.55;38.00;99186.81;4889961;29;20053;-94
2024/02/21 15:50:22;;;;;;;3.95;1.50;;;;;;;15.40;37.00;99160.63;4889942;29;20040;-96
2024/02/21 15:52:48;;;;;;;2.72;1.20;;;;;;;15.49;38.22;99208.47;4887230;29;20080;-95
2024/02/21 15:55:14;;;;;;;1.70;0.80;;;;;;;15.12;38.67;99169.75;4888543;29;20048;-95
2024/02/21 15:57:40;;;;;;;2.92;1.25;;;;;;;15.26;37.83;99209.38;4889116;29;20048;-95
2024/02/21 16:00:12;;;;;;;2.40;1.10;;;;;;;15.25;37.99;99199.63;4887741;29;20123;-93
2024/02/21 16:02:41;;;;;;;3.78;0.80;;;;;;;15.28;38.39;99206.66;4886166;29;20083;-96
2024/02/21 16:05:09;;;;;;;2.28;1.20;;;;;;;14.84;38.41;99134.28;4887011;29;20509;-95
2024/02/21 16:07:37;;;;;;;1.80;0.90;;;;;;;14.98;38.82;99177.44;4886405;29;20048;-95
2024/02/21 16:10:04;;;;;;;2.13;1.00;;;;;;;14.80;38.08;99162.97;4883841;29;20036;-95
2024/02/21 16:12:30;;;;;;;2.05;1.20;;;;;;;15.02;38.50;99197.81;4884380;29;20037;-93
2024/02/21 16:14:56;;;;;;;2.40;1.20;;;;;;;14.71;39.34;99174.03;4901270;29;20039;-92
2024/02/21 16:17:22;;;;;;;2.28;1.00;;;;;;;14.82;38.91;99200.41;4884567;29;20053;-93
2024/02/21 16:19:49;;;;;;;1.35;0.80;;;;;;;14.88;39.60;99217.09;4884896;29;20061;-94
2024/02/21 16:22:15;;;;;;;1.85;1.00;;;;;;;14.74;39.88;99211.38;4885679;29;20068;-92
2024/02/21 16:24:41;;;;;;;2.33;1.30;;;;;;;14.35;39.73;99164.56;4904612;29;20041;-95
2024/02/21 16:27:09;;;;;;;2.38;1.00;;;;;;;14.69;40.10;99210.69;4884166;29;20043;-96
2024/02/21 16:29:35;;;;;;;3.33;1.10;;;;;;;14.59;40.59;99212.81;4880627;29;20045;-95
2024/02/21 16:32:01;;;;;;;2.70;1.02;;;;;;;14.39;41.02;99208.13;4884711;29;20041;-96
2024/02/21 16:34:27;;;;;;;3.95;1.00;;;;;;;14.10;41.45;99191.31;4885878;29;20045;-95
2024/02/21 16:36:57;;;;;;;2.55;1.17;;;;;;;13.61;42.14;99122.63;4888064;29;20140;-96
2024/02/21 16:39:24;;;;;;;1.98;0.95;;;;;;;13.63;42.07;99145.69;4899611;29;20033;-96
2024/02/21 16:42:02;;;;;;;2.10;1.20;;;;;;;13.54;42.02;99140.66;4904909;29;20048;-96
2024/02/21 16:44:33;;;;;;;2.75;1.30;;;;;;;13.28;44.80;99142.38;5012300;23;20117;-96
2024/02/21 16:47:04;;;;;;;2.22;1.08;;;;;;;13.19;43.70;99129.28;4880806;29;20093;-96
2024/02/21 16:49:39;;;;;;;3.25;1.23;;;;;;;13.11;42.67;99131.31;4907617;29;20040;-96
2024/02/21 16:52:07;;;;;;;3.42;1.33;;;;;;;13.52;42.95;99210.16;4868656;29;20041;-96
2024/02/21 16:54:33;;;;;;;6.07;2.75;;;;;;;13.01;45.65;99164.56;4861209;29;20041;-96
2024/02/21 16:56:59;;;;;;;2.63;1.23;;;;;;;13.31;44.04;99201.03;4867710;29;20044;-94
2024/02/21 16:59:25;;;;;;;4.40;1.42;;;;;;;12.89;44.53;99134.66;4867509;29;20112;-96
2024/02/21 17:01:52;;;;;;;111.18;34.88;;;;;;;12.69;44.79;99137.94;4871902;29;20053;-96
2024/02/21 17:04:18;;;;;;;50.22;18.35;;;;;;;13.06;43.53;99181.34;4869316;29;20057;-96
2024/02/21 17:06:44;;;;;;;24.00;8.10;;;;;;;13.29;42.49;99210.00;4867485;29;20118;-95
2024/02/21 17:09:13;;;;;;;107.90;33.10;;;;;;;12.91;42.83;99138.16;4871996;29;20073;-96
2024/02/21 17:11:40;;;;;;;132.00;41.70;;;;;;;13.18;42.53;99172.06;4875358;29;20112;-96
2024/02/21 17:14:06;;;;;;;50.55;15.55;;;;;;;13.47;41.09;99212.13;4867637;29;20041;-94
2024/02/21 17:16:32;;;;;;;10.70;4.03;;;;;;;13.66;40.85;99214.19;4865232;29;20058;-94